Portada
METAR-TAF:

METAR-TAF

Aeropuertos :

Junín, Argentina

Aeropuerto de Junín

latitud: 34-33S, longitud: 060-55W, altitud: 82 m

Observación

El informe se hizo hace 2 horas y 53 minutos, a las 09:35 UTC
Viento 10 kt del sur-suroeste con ráfagas de 22 kt
Temperatura 21°C
Humedad 78%
Presión 1005 hPa
Visibilidad: 9000 m
Cielo nuboso a una altura de 4000 ft
tormenta, lluvia ligera

METAR: SAAJ 050935Z 20010G22KT 9000 -TSRA BKN040 21/17 Q1005

Hora: 09:28 (12:28 UTC)


TAF: falta

Observaciones y pronósticos meteorológicos de más de 4000 aeropuertos (mensajes METAR y TAF).

Los puntos amarillos y rojos representan las estaciones disponibles.

Ponga el ratón en el punto deseado para ver el nombre de la estación.

Haga clic para ver las observaciones y los pronósticos meteorológicos.

Para cambiar el mapa : haga clic en los botones verdes con una cruz de color negro para hacer un zoom, en el botón verde con un guión para alejar o en las flechas verdes para mapas adyacentes.


METAR-TAF: